sensor_id;sensor_type;location;lat;lon;timestamp;temperature;humidity
26164;DHT22;13914;48.178;11.716;2023-03-04T00:02:00;2.40;90.40
26164;DHT22;13914;48.178;11.716;2023-03-04T00:04:26;2.40;90.40
26164;DHT22;13914;48.178;11.716;2023-03-04T00:06:52;2.40;90.40
26164;DHT22;13914;48.178;11.716;2023-03-04T00:09:18;2.30;90.50
26164;DHT22;13914;48.178;11.716;2023-03-04T00:11:44;2.30;90.50
26164;DHT22;13914;48.178;11.716;2023-03-04T00:14:09;2.30;90.50
26164;DHT22;13914;48.178;11.716;2023-03-04T00:16:35;2.20;90.50
26164;DHT22;13914;48.178;11.716;2023-03-04T00:19:01;2.20;90.60
26164;DHT22;13914;48.178;11.716;2023-03-04T00:21:27;2.20;90.60
26164;DHT22;13914;48.178;11.716;2023-03-04T00:23:53;2.20;90.50
26164;DHT22;13914;48.178;11.716;2023-03-04T00:26:19;2.20;90.60
26164;DHT22;13914;48.178;11.716;2023-03-04T00:28:44;2.10;90.60
26164;DHT22;13914;48.178;11.716;2023-03-04T00:31:10;2.10;90.50
26164;DHT22;13914;48.178;11.716;2023-03-04T00:33:36;2.10;90.60
26164;DHT22;13914;48.178;11.716;2023-03-04T00:36:03;2.10;90.50
26164;DHT22;13914;48.178;11.716;2023-03-04T00:38:29;2.10;90.60
26164;DHT22;13914;48.178;11.716;2023-03-04T00:40:55;2.00;90.50
26164;DHT22;13914;48.178;11.716;2023-03-04T00:43:21;2.00;90.60
26164;DHT22;13914;48.178;11.716;2023-03-04T00:45:47;2.00;90.50
26164;DHT22;13914;48.178;11.716;2023-03-04T00:48:13;2.00;90.50
26164;DHT22;13914;48.178;11.716;2023-03-04T00:50:40;2.00;90.40
26164;DHT22;13914;48.178;11.716;2023-03-04T00:53:06;2.00;90.50
26164;DHT22;13914;48.178;11.716;2023-03-04T00:55:32;2.00;90.60
26164;DHT22;13914;48.178;11.716;2023-03-04T00:57:58;1.90;90.60
26164;DHT22;13914;48.178;11.716;2023-03-04T01:00:24;1.90;90.50
26164;DHT22;13914;48.178;11.716;2023-03-04T01:02:50;1.90;90.50
26164;DHT22;13914;48.178;11.716;2023-03-04T01:05:15;1.90;90.50
26164;DHT22;13914;48.178;11.716;2023-03-04T01:07:41;1.80;90.50
26164;DHT22;13914;48.178;11.716;2023-03-04T01:10:10;1.80;90.50
26164;DHT22;13914;48.178;11.716;2023-03-04T01:12:38;1.80;90.50
26164;DHT22;13914;48.178;11.716;2023-03-04T01:15:06;1.80;90.50
26164;DHT22;13914;48.178;11.716;2023-03-04T01:17:34;1.80;90.50
26164;DHT22;13914;48.178;11.716;2023-03-04T01:20:00;1.80;90.50
26164;DHT22;13914;48.178;11.716;2023-03-04T01:22:25;1.70;90.60
26164;DHT22;13914;48.178;11.716;2023-03-04T01:24:51;1.70;90.60
26164;DHT22;13914;48.178;11.716;2023-03-04T01:27:17;1.70;90.60
26164;DHT22;13914;48.178;11.716;2023-03-04T01:29:43;1.70;90.50
26164;DHT22;13914;48.178;11.716;2023-03-04T01:32:08;1.70;90.50
26164;DHT22;13914;48.178;11.716;2023-03-04T01:34:34;1.60;90.60
26164;DHT22;13914;48.178;11.716;2023-03-04T01:37:00;1.60;90.40
26164;DHT22;13914;48.178;11.716;2023-03-04T01:39:26;1.60;90.60
26164;DHT22;13914;48.178;11.716;2023-03-04T01:41:52;1.60;90.60
26164;DHT22;13914;48.178;11.716;2023-03-04T01:44:18;1.60;90.60
26164;DHT22;13914;48.178;11.716;2023-03-04T01:46:50;1.60;90.60
26164;DHT22;13914;48.178;11.716;2023-03-04T01:49:18;1.50;90.50
26164;DHT22;13914;48.178;11.716;2023-03-04T01:51:51;1.50;90.60
26164;DHT22;13914;48.178;11.716;2023-03-04T01:54:19;1.50;90.50
26164;DHT22;13914;48.178;11.716;2023-03-04T01:56:48;1.50;90.60
26164;DHT22;13914;48.178;11.716;2023-03-04T01:59:23;1.50;90.50
26164;DHT22;13914;48.178;11.716;2023-03-04T02:01:54;1.50;90.60
26164;DHT22;13914;48.178;11.716;2023-03-04T02:04:26;1.40;91.00
26164;DHT22;13914;48.178;11.716;2023-03-04T02:06:53;1.40;90.60
26164;DHT22;13914;48.178;11.716;2023-03-04T02:09:19;1.40;90.40
26164;DHT22;13914;48.178;11.716;2023-03-04T02:11:47;1.40;90.50
26164;DHT22;13914;48.178;11.716;2023-03-04T02:14:15;1.40;90.60
26164;DHT22;13914;48.178;11.716;2023-03-04T02:16:41;1.30;90.60
26164;DHT22;13914;48.178;11.716;2023-03-04T02:19:15;1.30;90.60
26164;DHT22;13914;48.178;11.716;2023-03-04T02:21:47;1.30;90.50
26164;DHT22;13914;48.178;11.716;2023-03-04T02:24:28;1.30;90.50
26164;DHT22;13914;48.178;11.716;2023-03-04T02:26:57;1.30;90.70
26164;DHT22;13914;48.178;11.716;2023-03-04T02:29:23;1.30;90.70
26164;DHT22;13914;48.178;11.716;2023-03-04T02:31:50;1.20;90.60
26164;DHT22;13914;48.178;11.716;2023-03-04T02:34:23;1.20;90.50
26164;DHT22;13914;48.178;11.716;2023-03-04T02:36:52;1.20;90.60
26164;DHT22;13914;48.178;11.716;2023-03-04T02:41:57;1.20;90.60
26164;DHT22;13914;48.178;11.716;2023-03-04T02:44:32;1.20;90.70
26164;DHT22;13914;48.178;11.716;2023-03-04T02:47:00;1.20;90.60
26164;DHT22;13914;48.178;11.716;2023-03-04T02:49:28;1.10;90.70
26164;DHT22;13914;48.178;11.716;2023-03-04T02:54:29;1.10;90.60
26164;DHT22;13914;48.178;11.716;2023-03-04T02:56:57;1.10;90.60
26164;DHT22;13914;48.178;11.716;2023-03-04T02:59:24;1.10;90.60
26164;DHT22;13914;48.178;11.716;2023-03-04T03:01:50;1.10;90.50
26164;DHT22;13914;48.178;11.716;2023-03-04T03:04:17;1.10;90.60
26164;DHT22;13914;48.178;11.716;2023-03-04T03:06:43;1.10;90.50
26164;DHT22;13914;48.178;11.716;2023-03-04T03:09:09;1.00;90.60
26164;DHT22;13914;48.178;11.716;2023-03-04T03:11:35;1.10;90.60
26164;DHT22;13914;48.178;11.716;2023-03-04T03:14:01;1.00;90.50
26164;DHT22;13914;48.178;11.716;2023-03-04T03:16:27;1.00;90.60
26164;DHT22;13914;48.178;11.716;2023-03-04T03:18:53;1.00;90.50
26164;DHT22;13914;48.178;11.716;2023-03-04T03:21:18;1.00;90.60
26164;DHT22;13914;48.178;11.716;2023-03-04T03:23:44;0.90;90.90
26164;DHT22;13914;48.178;11.716;2023-03-04T03:26:10;0.90;90.50
26164;DHT22;13914;48.178;11.716;2023-03-04T03:28:36;0.90;90.50
26164;DHT22;13914;48.178;11.716;2023-03-04T03:31:02;0.90;90.50
26164;DHT22;13914;48.178;11.716;2023-03-04T03:33:28;0.90;90.50
26164;DHT22;13914;48.178;11.716;2023-03-04T03:35:54;0.90;90.50
26164;DHT22;13914;48.178;11.716;2023-03-04T03:38:19;0.80;90.50
26164;DHT22;13914;48.178;11.716;2023-03-04T03:40:45;0.80;90.40
26164;DHT22;13914;48.178;11.716;2023-03-04T03:43:11;0.80;90.50
26164;DHT22;13914;48.178;11.716;2023-03-04T03:45:37;0.80;90.40
26164;DHT22;13914;48.178;11.716;2023-03-04T03:48:03;0.80;90.40
26164;DHT22;13914;48.178;11.716;2023-03-04T03:50:29;0.80;90.40
26164;DHT22;13914;48.178;11.716;2023-03-04T03:52:55;0.70;90.50
26164;DHT22;13914;48.178;11.716;2023-03-04T03:55:21;0.70;90.50
26164;DHT22;13914;48.178;11.716;2023-03-04T03:57:47;0.70;90.50
26164;DHT22;13914;48.178;11.716;2023-03-04T04:00:13;0.70;90.50
26164;DHT22;13914;48.178;11.716;2023-03-04T04:02:40;0.70;90.50
26164;DHT22;13914;48.178;11.716;2023-03-04T04:05:07;0.60;90.40
26164;DHT22;13914;48.178;11.716;2023-03-04T04:07:35;0.60;90.50
26164;DHT22;13914;48.178;11.716;2023-03-04T04:10:01;0.60;90.50
26164;DHT22;13914;48.178;11.716;2023-03-04T04:12:28;0.60;90.90
26164;DHT22;13914;48.178;11.716;2023-03-04T04:14:54;0.60;90.60
26164;DHT22;13914;48.178;11.716;2023-03-04T04:17:20;0.60;90.50
26164;DHT22;13914;48.178;11.716;2023-03-04T04:19:46;0.60;90.50
26164;DHT22;13914;48.178;11.716;2023-03-04T04:22:15;0.50;90.70
26164;DHT22;13914;48.178;11.716;2023-03-04T04:24:42;0.50;90.50
26164;DHT22;13914;48.178;11.716;2023-03-04T04:27:08;0.50;90.60
26164;DHT22;13914;48.178;11.716;2023-03-04T04:29:34;0.50;90.50
26164;DHT22;13914;48.178;11.716;2023-03-04T04:31:59;0.50;90.30
26164;DHT22;13914;48.178;11.716;2023-03-04T04:34:25;0.50;90.50
26164;DHT22;13914;48.178;11.716;2023-03-04T04:36:51;0.40;90.40
26164;DHT22;13914;48.178;11.716;2023-03-04T04:39:18;0.40;90.50
26164;DHT22;13914;48.178;11.716;2023-03-04T04:41:44;0.40;90.50
26164;DHT22;13914;48.178;11.716;2023-03-04T04:44:11;0.40;90.50
26164;DHT22;13914;48.178;11.716;2023-03-04T04:46:37;0.40;90.50
26164;DHT22;13914;48.178;11.716;2023-03-04T04:49:04;0.30;90.50
26164;DHT22;13914;48.178;11.716;2023-03-04T04:51:31;0.40;90.50
26164;DHT22;13914;48.178;11.716;2023-03-04T04:53:58;0.40;90.50
26164;DHT22;13914;48.178;11.716;2023-03-04T04:56:25;0.30;90.50
26164;DHT22;13914;48.178;11.716;2023-03-04T04:58:53;0.30;90.50
26164;DHT22;13914;48.178;11.716;2023-03-04T05:01:20;0.30;90.40
26164;DHT22;13914;48.178;11.716;2023-03-04T05:03:46;0.30;90.50
26164;DHT22;13914;48.178;11.716;2023-03-04T05:06:14;0.30;90.50
26164;DHT22;13914;48.178;11.716;2023-03-04T05:08:40;0.30;90.30
26164;DHT22;13914;48.178;11.716;2023-03-04T05:11:06;0.30;90.40
26164;DHT22;13914;48.178;11.716;2023-03-04T05:13:32;0.20;90.40
26164;DHT22;13914;48.178;11.716;2023-03-04T05:15:58;0.30;90.40
26164;DHT22;13914;48.178;11.716;2023-03-04T05:18:25;0.20;90.40
26164;DHT22;13914;48.178;11.716;2023-03-04T05:20:54;0.20;90.50
26164;DHT22;13914;48.178;11.716;2023-03-04T05:23:21;0.20;90.50
26164;DHT22;13914;48.178;11.716;2023-03-04T05:25:47;0.20;90.50
26164;DHT22;13914;48.178;11.716;2023-03-04T05:28:14;0.10;90.40
26164;DHT22;13914;48.178;11.716;2023-03-04T05:30:43;0.20;90.50
26164;DHT22;13914;48.178;11.716;2023-03-04T05:33:11;0.10;90.40
26164;DHT22;13914;48.178;11.716;2023-03-04T05:35:41;0.20;90.40
26164;DHT22;13914;48.178;11.716;2023-03-04T05:38:09;0.20;90.50
26164;DHT22;13914;48.178;11.716;2023-03-04T05:40:37;0.10;90.40
26164;DHT22;13914;48.178;11.716;2023-03-04T05:43:03;0.10;90.40
26164;DHT22;13914;48.178;11.716;2023-03-04T05:45:29;0.10;90.40
26164;DHT22;13914;48.178;11.716;2023-03-04T05:47:55;0.10;90.40
26164;DHT22;13914;48.178;11.716;2023-03-04T05:50:22;0.10;90.40
26164;DHT22;13914;48.178;11.716;2023-03-04T05:52:48;0.10;90.40
26164;DHT22;13914;48.178;11.716;2023-03-04T05:55:15;0.10;90.50
26164;DHT22;13914;48.178;11.716;2023-03-04T05:57:42;0.00;90.80
26164;DHT22;13914;48.178;11.716;2023-03-04T06:00:09;0.00;90.40
26164;DHT22;13914;48.178;11.716;2023-03-04T06:02:38;0.00;90.40
26164;DHT22;13914;48.178;11.716;2023-03-04T06:05:05;0.00;90.40
26164;DHT22;13914;48.178;11.716;2023-03-04T06:07:32;0.00;90.30
26164;DHT22;13914;48.178;11.716;2023-03-04T06:09:58;0.00;90.50
26164;DHT22;13914;48.178;11.716;2023-03-04T06:12:24;0.00;90.40
26164;DHT22;13914;48.178;11.716;2023-03-04T06:14:50;0.00;90.40
26164;DHT22;13914;48.178;11.716;2023-03-04T06:17:15;-0.10;90.40
26164;DHT22;13914;48.178;11.716;2023-03-04T06:19:41;0.00;90.40
26164;DHT22;13914;48.178;11.716;2023-03-04T06:22:08;0.00;90.40
26164;DHT22;13914;48.178;11.716;2023-03-04T06:24:34;-0.10;90.40
26164;DHT22;13914;48.178;11.716;2023-03-04T06:27:00;-0.10;90.50
26164;DHT22;13914;48.178;11.716;2023-03-04T06:29:26;-0.10;90.50
26164;DHT22;13914;48.178;11.716;2023-03-04T06:31:52;-0.10;90.50
26164;DHT22;13914;48.178;11.716;2023-03-04T06:34:18;-0.10;90.50
26164;DHT22;13914;48.178;11.716;2023-03-04T06:36:44;-0.10;90.60
26164;DHT22;13914;48.178;11.716;2023-03-04T06:39:10;-0.10;90.50
26164;DHT22;13914;48.178;11.716;2023-03-04T06:41:36;-0.10;90.50
26164;DHT22;13914;48.178;11.716;2023-03-04T06:44:02;-0.10;90.50
26164;DHT22;13914;48.178;11.716;2023-03-04T06:46:28;0.00;90.40
26164;DHT22;13914;48.178;11.716;2023-03-04T06:48:55;0.00;90.50
26164;DHT22;13914;48.178;11.716;2023-03-04T06:51:21;0.00;90.50
26164;DHT22;13914;48.178;11.716;2023-03-04T06:53:46;0.00;90.40
26164;DHT22;13914;48.178;11.716;2023-03-04T06:56:13;0.00;90.40
26164;DHT22;13914;48.178;11.716;2023-03-04T06:58:41;0.10;90.40
26164;DHT22;13914;48.178;11.716;2023-03-04T07:01:16;0.10;90.50
26164;DHT22;13914;48.178;11.716;2023-03-04T07:03:47;0.10;90.40
26164;DHT22;13914;48.178;11.716;2023-03-04T07:06:14;0.10;90.40
26164;DHT22;13914;48.178;11.716;2023-03-04T07:08:41;0.10;90.40
26164;DHT22;13914;48.178;11.716;2023-03-04T07:11:07;0.10;90.40
26164;DHT22;13914;48.178;11.716;2023-03-04T07:13:34;0.20;90.50
26164;DHT22;13914;48.178;11.716;2023-03-04T07:16:03;0.20;90.40
26164;DHT22;13914;48.178;11.716;2023-03-04T07:18:30;0.20;90.50
26164;DHT22;13914;48.178;11.716;2023-03-04T07:20:56;0.30;90.40
26164;DHT22;13914;48.178;11.716;2023-03-04T07:23:22;0.30;90.50
26164;DHT22;13914;48.178;11.716;2023-03-04T07:25:48;0.30;90.40
26164;DHT22;13914;48.178;11.716;2023-03-04T07:28:15;0.30;90.50
26164;DHT22;13914;48.178;11.716;2023-03-04T07:30:41;0.40;90.60
26164;DHT22;13914;48.178;11.716;2023-03-04T07:33:07;0.40;90.60
26164;DHT22;13914;48.178;11.716;2023-03-04T07:35:33;0.40;90.50
26164;DHT22;13914;48.178;11.716;2023-03-04T07:37:59;0.40;90.50
26164;DHT22;13914;48.178;11.716;2023-03-04T07:40:25;0.50;90.70
26164;DHT22;13914;48.178;11.716;2023-03-04T07:42:52;0.50;91.00
26164;DHT22;13914;48.178;11.716;2023-03-04T07:45:19;0.60;91.00
26164;DHT22;13914;48.178;11.716;2023-03-04T07:47:45;0.60;91.40
26164;DHT22;13914;48.178;11.716;2023-03-04T07:50:12;0.70;91.30
26164;DHT22;13914;48.178;11.716;2023-03-04T07:52:43;0.70;91.20
26164;DHT22;13914;48.178;11.716;2023-03-04T07:55:11;0.70;91.00
26164;DHT22;13914;48.178;11.716;2023-03-04T07:57:42;0.80;91.20
26164;DHT22;13914;48.178;11.716;2023-03-04T08:00:11;0.80;91.10
26164;DHT22;13914;48.178;11.716;2023-03-04T08:02:38;0.90;91.30
26164;DHT22;13914;48.178;11.716;2023-03-04T08:05:05;1.00;91.50
26164;DHT22;13914;48.178;11.716;2023-03-04T08:07:31;1.10;91.40
26164;DHT22;13914;48.178;11.716;2023-03-04T08:09:57;1.20;91.40
26164;DHT22;13914;48.178;11.716;2023-03-04T08:12:23;1.20;91.60
26164;DHT22;13914;48.178;11.716;2023-03-04T08:14:50;1.30;91.80
26164;DHT22;13914;48.178;11.716;2023-03-04T08:17:16;1.40;91.80
26164;DHT22;13914;48.178;11.716;2023-03-04T08:19:42;1.50;91.80
26164;DHT22;13914;48.178;11.716;2023-03-04T08:22:08;1.60;91.80
26164;DHT22;13914;48.178;11.716;2023-03-04T08:24:34;1.70;91.90
26164;DHT22;13914;48.178;11.716;2023-03-04T08:27:00;1.80;91.90
26164;DHT22;13914;48.178;11.716;2023-03-04T08:29:25;1.90;91.80
26164;DHT22;13914;48.178;11.716;2023-03-04T08:31:52;2.00;91.90
26164;DHT22;13914;48.178;11.716;2023-03-04T08:34:21;2.10;92.10
26164;DHT22;13914;48.178;11.716;2023-03-04T08:36:49;2.20;92.10
26164;DHT22;13914;48.178;11.716;2023-03-04T08:39:16;2.30;92.10
26164;DHT22;13914;48.178;11.716;2023-03-04T08:41:43;2.40;92.20
26164;DHT22;13914;48.178;11.716;2023-03-04T08:44:09;2.50;92.00
26164;DHT22;13914;48.178;11.716;2023-03-04T08:46:37;2.60;91.90
26164;DHT22;13914;48.178;11.716;2023-03-04T08:49:03;2.70;91.90
26164;DHT22;13914;48.178;11.716;2023-03-04T08:51:29;2.80;91.90
26164;DHT22;13914;48.178;11.716;2023-03-04T08:53:55;2.90;91.70
26164;DHT22;13914;48.178;11.716;2023-03-04T08:56:21;3.00;91.90
26164;DHT22;13914;48.178;11.716;2023-03-04T08:58:47;3.10;91.70
26164;DHT22;13914;48.178;11.716;2023-03-04T09:01:14;3.20;91.70
26164;DHT22;13914;48.178;11.716;2023-03-04T09:03:40;3.30;91.70
26164;DHT22;13914;48.178;11.716;2023-03-04T09:06:08;3.40;91.70
26164;DHT22;13914;48.178;11.716;2023-03-04T09:08:35;3.50;91.60
26164;DHT22;13914;48.178;11.716;2023-03-04T09:11:02;3.60;91.50
26164;DHT22;13914;48.178;11.716;2023-03-04T09:13:29;3.70;91.50
26164;DHT22;13914;48.178;11.716;2023-03-04T09:15:56;3.80;91.50
26164;DHT22;13914;48.178;11.716;2023-03-04T09:18:23;3.90;91.50
26164;DHT22;13914;48.178;11.716;2023-03-04T09:20:49;4.00;91.60
26164;DHT22;13914;48.178;11.716;2023-03-04T09:23:16;4.10;91.40
26164;DHT22;13914;48.178;11.716;2023-03-04T09:25:43;4.20;91.20
26164;DHT22;13914;48.178;11.716;2023-03-04T09:28:11;4.30;91.20
26164;DHT22;13914;48.178;11.716;2023-03-04T09:30:38;4.40;91.20
26164;DHT22;13914;48.178;11.716;2023-03-04T09:33:04;4.60;91.50
26164;DHT22;13914;48.178;11.716;2023-03-04T09:35:30;4.70;91.10
26164;DHT22;13914;48.178;11.716;2023-03-04T09:37:56;4.80;90.60
26164;DHT22;13914;48.178;11.716;2023-03-04T09:43:06;5.00;90.90
26164;DHT22;13914;48.178;11.716;2023-03-04T09:45:42;5.10;90.40
26164;DHT22;13914;48.178;11.716;2023-03-04T09:48:16;5.10;90.30
26164;DHT22;13914;48.178;11.716;2023-03-04T09:51:17;5.20;90.00
26164;DHT22;13914;48.178;11.716;2023-03-04T09:54:08;5.30;89.00
26164;DHT22;13914;48.178;11.716;2023-03-04T09:56:37;5.30;89.50
26164;DHT22;13914;48.178;11.716;2023-03-04T09:59:15;5.40;88.50
26164;DHT22;13914;48.178;11.716;2023-03-04T10:01:48;5.40;88.30
26164;DHT22;13914;48.178;11.716;2023-03-04T10:04:29;5.50;88.30
26164;DHT22;13914;48.178;11.716;2023-03-04T10:07:01;5.70;89.00
26164;DHT22;13914;48.178;11.716;2023-03-04T10:09:39;5.80;88.50
26164;DHT22;13914;48.178;11.716;2023-03-04T10:12:12;5.90;87.40
26164;DHT22;13914;48.178;11.716;2023-03-04T10:14:56;6.00;87.20
26164;DHT22;13914;48.178;11.716;2023-03-04T10:17:33;6.00;86.50
26164;DHT22;13914;48.178;11.716;2023-03-04T10:20:26;6.10;87.60
26164;DHT22;13914;48.178;11.716;2023-03-04T10:23:11;6.20;87.10
26164;DHT22;13914;48.178;11.716;2023-03-04T10:25:43;6.30;86.10
26164;DHT22;13914;48.178;11.716;2023-03-04T10:28:15;6.40;86.00
26164;DHT22;13914;48.178;11.716;2023-03-04T10:31:20;6.40;85.50
26164;DHT22;13914;48.178;11.716;2023-03-04T10:33:51;6.50;85.80
26164;DHT22;13914;48.178;11.716;2023-03-04T10:39:11;6.70;85.70
26164;DHT22;13914;48.178;11.716;2023-03-04T10:44:41;6.90;85.10
26164;DHT22;13914;48.178;11.716;2023-03-04T10:47:23;6.90;83.60
26164;DHT22;13914;48.178;11.716;2023-03-04T10:49:52;6.90;83.50
26164;DHT22;13914;48.178;11.716;2023-03-04T10:55:13;7.10;83.40
26164;DHT22;13914;48.178;11.716;2023-03-04T10:57:46;7.20;83.10
26164;DHT22;13914;48.178;11.716;2023-03-04T11:02:43;7.30;83.00
26164;DHT22;13914;48.178;11.716;2023-03-04T11:05:21;7.30;82.60
26164;DHT22;13914;48.178;11.716;2023-03-04T11:10:20;7.50;82.90
26164;DHT22;13914;48.178;11.716;2023-03-04T11:12:59;7.50;83.20
26164;DHT22;13914;48.178;11.716;2023-03-04T11:15:29;7.60;82.50
26164;DHT22;13914;48.178;11.716;2023-03-04T11:18:02;7.60;81.80
26164;DHT22;13914;48.178;11.716;2023-03-04T11:20:32;7.70;83.20
26164;DHT22;13914;48.178;11.716;2023-03-04T11:23:13;7.80;82.60
26164;DHT22;13914;48.178;11.716;2023-03-04T11:25:46;7.90;83.60
26164;DHT22;13914;48.178;11.716;2023-03-04T11:28:21;7.90;83.80
26164;DHT22;13914;48.178;11.716;2023-03-04T11:30:54;8.00;82.10
26164;DHT22;13914;48.178;11.716;2023-03-04T11:33:42;8.00;82.70
26164;DHT22;13914;48.178;11.716;2023-03-04T11:36:34;8.10;83.10
26164;DHT22;13914;48.178;11.716;2023-03-04T11:39:19;8.20;82.50
26164;DHT22;13914;48.178;11.716;2023-03-04T11:41:55;8.20;82.50
26164;DHT22;13914;48.178;11.716;2023-03-04T11:44:24;8.30;82.20
26164;DHT22;13914;48.178;11.716;2023-03-04T11:47:21;8.40;82.40
26164;DHT22;13914;48.178;11.716;2023-03-04T11:59:22;8.50;81.60
26164;DHT22;13914;48.178;11.716;2023-03-04T12:02:14;8.50;81.00
26164;DHT22;13914;48.178;11.716;2023-03-04T12:19:46;8.60;81.10
26164;DHT22;13914;48.178;11.716;2023-03-04T12:25:17;8.70;80.70
26164;DHT22;13914;48.178;11.716;2023-03-04T12:28:10;8.80;81.50
26164;DHT22;13914;48.178;11.716;2023-03-04T12:30:51;8.80;81.80
26164;DHT22;13914;48.178;11.716;2023-03-04T12:45:29;9.00;80.20
26164;DHT22;13914;48.178;11.716;2023-03-04T12:48:31;8.90;79.00
26164;DHT22;13914;48.178;11.716;2023-03-04T12:51:33;8.90;80.40
26164;DHT22;13914;48.178;11.716;2023-03-04T12:54:24;9.00;80.70
26164;DHT22;13914;48.178;11.716;2023-03-04T12:59:35;9.00;81.00
26164;DHT22;13914;48.178;11.716;2023-03-04T13:02:28;9.00;80.90
26164;DHT22;13914;48.178;11.716;2023-03-04T13:08:02;9.00;80.70
26164;DHT22;13914;48.178;11.716;2023-03-04T13:10:52;9.00;81.20
26164;DHT22;13914;48.178;11.716;2023-03-04T13:13:39;9.00;80.90
26164;DHT22;13914;48.178;11.716;2023-03-04T13:18:38;9.00;81.50
26164;DHT22;13914;48.178;11.716;2023-03-04T13:21:27;9.00;80.80
26164;DHT22;13914;48.178;11.716;2023-03-04T13:23:54;9.00;81.40
26164;DHT22;13914;48.178;11.716;2023-03-04T13:26:40;9.00;82.00
26164;DHT22;13914;48.178;11.716;2023-03-04T13:31:58;9.10;81.80
26164;DHT22;13914;48.178;11.716;2023-03-04T13:34:47;9.20;83.00
26164;DHT22;13914;48.178;11.716;2023-03-04T13:37:35;9.20;81.40
26164;DHT22;13914;48.178;11.716;2023-03-04T13:40:31;9.20;81.50
26164;DHT22;13914;48.178;11.716;2023-03-04T13:43:22;9.20;81.00
26164;DHT22;13914;48.178;11.716;2023-03-04T13:45:50;9.10;81.50
26164;DHT22;13914;48.178;11.716;2023-03-04T13:48:42;9.20;81.90
26164;DHT22;13914;48.178;11.716;2023-03-04T13:51:39;9.20;81.80
26164;DHT22;13914;48.178;11.716;2023-03-04T13:54:31;9.20;81.50
26164;DHT22;13914;48.178;11.716;2023-03-04T13:59:48;9.20;82.60
26164;DHT22;13914;48.178;11.716;2023-03-04T14:02:23;9.10;82.70
26164;DHT22;13914;48.178;11.716;2023-03-04T14:07:35;9.20;82.10
26164;DHT22;13914;48.178;11.716;2023-03-04T14:12:40;9.20;82.10
26164;DHT22;13914;48.178;11.716;2023-03-04T14:17:38;9.10;81.80
26164;DHT22;13914;48.178;11.716;2023-03-04T14:20:24;9.00;82.50
26164;DHT22;13914;48.178;11.716;2023-03-04T14:22:50;9.00;81.40
26164;DHT22;13914;48.178;11.716;2023-03-04T14:25:21;9.00;81.60
26164;DHT22;13914;48.178;11.716;2023-03-04T14:27:49;8.90;82.00
26164;DHT22;13914;48.178;11.716;2023-03-04T14:30:31;8.80;81.80
26164;DHT22;13914;48.178;11.716;2023-03-04T14:32:58;8.80;80.70
26164;DHT22;13914;48.178;11.716;2023-03-04T14:35:29;8.80;81.70
26164;DHT22;13914;48.178;11.716;2023-03-04T14:40:41;8.70;81.40
26164;DHT22;13914;48.178;11.716;2023-03-04T14:43:22;8.70;81.10
26164;DHT22;13914;48.178;11.716;2023-03-04T14:45:53;8.70;80.70
26164;DHT22;13914;48.178;11.716;2023-03-04T14:48:26;8.60;79.80
26164;DHT22;13914;48.178;11.716;2023-03-04T14:51:00;8.40;79.40
26164;DHT22;13914;48.178;11.716;2023-03-04T14:53:31;8.30;80.50
26164;DHT22;13914;48.178;11.716;2023-03-04T14:56:07;8.20;79.60
26164;DHT22;13914;48.178;11.716;2023-03-04T14:58:34;8.10;81.00
26164;DHT22;13914;48.178;11.716;2023-03-04T15:01:14;8.10;79.70
26164;DHT22;13914;48.178;11.716;2023-03-04T15:06:23;8.00;79.60
26164;DHT22;13914;48.178;11.716;2023-03-04T15:14:48;7.60;79.70
26164;DHT22;13914;48.178;11.716;2023-03-04T15:17:37;7.50;78.50
26164;DHT22;13914;48.178;11.716;2023-03-04T15:22:35;7.30;80.00
26164;DHT22;13914;48.178;11.716;2023-03-04T15:25:21;7.20;78.80
26164;DHT22;13914;48.178;11.716;2023-03-04T15:27:48;7.10;79.90
26164;DHT22;13914;48.178;11.716;2023-03-04T15:32:48;7.00;79.60
26164;DHT22;13914;48.178;11.716;2023-03-04T15:35:16;6.90;79.60
26164;DHT22;13914;48.178;11.716;2023-03-04T15:37:43;6.90;79.30
26164;DHT22;13914;48.178;11.716;2023-03-04T15:42:59;6.70;79.10
26164;DHT22;13914;48.178;11.716;2023-03-04T15:45:27;6.60;79.80
26164;DHT22;13914;48.178;11.716;2023-03-04T15:47:55;6.60;80.40
26164;DHT22;13914;48.178;11.716;2023-03-04T15:50:22;6.50;79.10
26164;DHT22;13914;48.178;11.716;2023-03-04T15:52:55;6.40;79.60
26164;DHT22;13914;48.178;11.716;2023-03-04T15:55:23;6.40;79.70
26164;DHT22;13914;48.178;11.716;2023-03-04T15:57:53;6.30;79.50
26164;DHT22;13914;48.178;11.716;2023-03-04T16:00:20;6.20;79.80
26164;DHT22;13914;48.178;11.716;2023-03-04T16:02:46;6.10;80.30
26164;DHT22;13914;48.178;11.716;2023-03-04T16:05:14;6.00;80.70
26164;DHT22;13914;48.178;11.716;2023-03-04T16:07:41;6.00;80.90
26164;DHT22;13914;48.178;11.716;2023-03-04T16:10:28;5.90;80.50
26164;DHT22;13914;48.178;11.716;2023-03-04T16:12:57;5.90;81.20
26164;DHT22;13914;48.178;11.716;2023-03-04T16:15:26;5.90;80.60
26164;DHT22;13914;48.178;11.716;2023-03-04T16:17:53;5.90;79.80
26164;DHT22;13914;48.178;11.716;2023-03-04T16:20:22;5.80;80.40
26164;DHT22;13914;48.178;11.716;2023-03-04T16:22:52;5.80;80.00
26164;DHT22;13914;48.178;11.716;2023-03-04T16:25:21;5.70;79.60
26164;DHT22;13914;48.178;11.716;2023-03-04T16:27:50;5.60;79.70
26164;DHT22;13914;48.178;11.716;2023-03-04T16:30:23;5.50;80.20
26164;DHT22;13914;48.178;11.716;2023-03-04T16:32:50;5.50;79.90
26164;DHT22;13914;48.178;11.716;2023-03-04T16:35:17;5.40;80.30
26164;DHT22;13914;48.178;11.716;2023-03-04T16:37:46;5.40;80.10
26164;DHT22;13914;48.178;11.716;2023-03-04T16:40:15;5.30;79.80
26164;DHT22;13914;48.178;11.716;2023-03-04T16:42:42;5.30;80.50
26164;DHT22;13914;48.178;11.716;2023-03-04T16:45:17;5.20;80.60
26164;DHT22;13914;48.178;11.716;2023-03-04T16:47:47;5.10;80.20
26164;DHT22;13914;48.178;11.716;2023-03-04T16:50:14;5.00;80.30
26164;DHT22;13914;48.178;11.716;2023-03-04T16:52:46;4.90;80.70
26164;DHT22;13914;48.178;11.716;2023-03-04T16:55:19;4.90;80.70
26164;DHT22;13914;48.178;11.716;2023-03-04T16:57:46;4.70;80.20
26164;DHT22;13914;48.178;11.716;2023-03-04T17:00:14;4.70;80.60
26164;DHT22;13914;48.178;11.716;2023-03-04T17:02:42;4.60;80.60
26164;DHT22;13914;48.178;11.716;2023-03-04T17:05:16;4.50;81.00
26164;DHT22;13914;48.178;11.716;2023-03-04T17:07:43;4.50;81.40
26164;DHT22;13914;48.178;11.716;2023-03-04T17:10:10;4.50;81.50
26164;DHT22;13914;48.178;11.716;2023-03-04T17:12:36;4.40;80.70
26164;DHT22;13914;48.178;11.716;2023-03-04T17:15:02;4.30;81.20
26164;DHT22;13914;48.178;11.716;2023-03-04T17:17:29;4.30;80.60
26164;DHT22;13914;48.178;11.716;2023-03-04T17:19:55;4.20;81.10
26164;DHT22;13914;48.178;11.716;2023-03-04T17:22:22;4.10;81.90
26164;DHT22;13914;48.178;11.716;2023-03-04T17:24:48;4.10;81.40
26164;DHT22;13914;48.178;11.716;2023-03-04T17:27:14;4.00;81.10
26164;DHT22;13914;48.178;11.716;2023-03-04T17:29:40;4.00;81.50